Time;durP1;ratioP1;P1;durP2;ratioP2;P2;SDS_P1;SDS_P2;PMS_P1;PMS_P2;Temp;Humidity;BMP_temperature;BMP_pressure;BME280_temperature;BME280_humidity;BME280_pressure;Samples;Min_cycle;Max_cycle;Signal;HPM_P1;HPM_P2
2022/07/14 00:02:16;;;;;;;;;;;;;;;;;;6134437;23;8834;-83
2022/07/14 00:04:41;;;;;;;;;;;;;;;;;;6134169;23;8713;-83
2022/07/14 00:07:07;;;;;;;;;;;;;;;;;;6159270;23;8392;-83
2022/07/14 00:09:33;;;;;;;;;;;;;;;;;;6159165;23;7118;-83
2022/07/14 00:11:58;;;;;;;;;;;;;;;;;;6159373;23;8450;-83
2022/07/14 00:14:24;;;;;;;;;;;;;;;;;;6133824;23;6990;-83
2022/07/14 00:16:49;;;;;;;;;;;;;;;;;;6135300;23;7211;-83
2022/07/14 00:19:15;;;;;;;;;;;;;;;;;;6158316;23;7140;-83
2022/07/14 00:21:41;;;;;;;;;;;;;;;;;;6134232;23;8413;-83
2022/07/14 00:24:09;;;;;;;;;;;;;;;;;;6158238;23;7028;-83
2022/07/14 00:26:35;;;;;;;;;;;;;;;;;;6134144;23;8662;-83
2022/07/14 00:29:01;;;;;;;;;;;;;;;;;;6159092;23;7130;-83
2022/07/14 00:31:26;;;;;;;;;;;;;;;;;;6134703;23;8479;-83
2022/07/14 00:33:52;;;;;;;;;;;;;;;;;;6159332;23;7016;-83
2022/07/14 00:36:17;;;;;;;;;;;;;;;;;;6133887;23;7012;-83
2022/07/14 00:38:43;;;;;;;;;;;;;;;;;;6134358;23;7207;-84
2022/07/14 00:41:08;;;;;;;;;;;;;;;;;;6134707;23;8387;-84
2022/07/14 00:43:34;;;;;;;;;;;;;;;;;;6158872;23;7100;-84
2022/07/14 00:45:59;;;;;;;;;;;;;;;;;;6133501;23;7134;-83
2022/07/14 00:48:27;;;;;;;;;;;;;;;;;;6158448;23;7142;-83
2022/07/14 00:50:53;;;;;;;;;;;;;;;;;;6133492;23;6991;-83
2022/07/14 00:53:19;;;;;;;;;;;;;;;;;;6158304;23;8365;-83
2022/07/14 00:55:44;;;;;;;;;;;;;;;;;;6158224;23;7134;-83
2022/07/14 00:58:11;;;;;;;;;;;;;;;;;;6133632;23;7010;-83
2022/07/14 01:00:37;;;;;;;;;;;;;;;;;;6157920;23;8291;-83
2022/07/14 01:03:02;;;;;;;;;;;;;;;;;;6159012;23;8279;-84
2022/07/14 01:05:28;;;;;;;;;;;;;;;;;;6158622;23;8272;-83
2022/07/14 01:07:54;;;;;;;;;;;;;;;;;;6157955;23;7224;-83
2022/07/14 01:10:20;;;;;;;;;;;;;;;;;;6158514;23;7025;-83
2022/07/14 01:12:47;;;;;;;;;;;;;;;;;;6158679;23;7019;-83
2022/07/14 01:15:18;;;;;;;;;;;;;;;;;;6158268;23;7096;-84
2022/07/14 01:17:44;;;;;;;;;;;;;;;;;;6158122;23;7161;-83
2022/07/14 01:20:10;;;;;;;;;;;;;;;;;;6158180;23;8459;-83
2022/07/14 01:22:36;;;;;;;;;;;;;;;;;;6158029;23;8627;-83
2022/07/14 01:25:06;;;;;;;;;;;;;;;;;;6157493;23;8347;-83
2022/07/14 01:27:32;;;;;;;;;;;;;;;;;;6133569;23;8305;-84
2022/07/14 01:29:58;;;;;;;;;;;;;;;;;;6158824;23;6902;-83
2022/07/14 01:32:24;;;;;;;;;;;;;;;;;;6158095;23;7127;-83
2022/07/14 01:34:49;;;;;;;;;;;;;;;;;;6158124;23;7213;-83
2022/07/14 01:37:15;;;;;;;;;;;;;;;;;;6132890;23;7001;-84
2022/07/14 01:39:41;;;;;;;;;;;;;;;;;;6157953;23;8458;-84
2022/07/14 01:42:08;;;;;;;;;;;;;;;;;;6133186;23;7024;-83
2022/07/14 01:44:33;;;;;;;;;;;;;;;;;;6157957;23;6858;-83
2022/07/14 01:46:59;;;;;;;;;;;;;;;;;;6133152;23;6995;-84
2022/07/14 01:49:25;;;;;;;;;;;;;;;;;;6133348;23;7002;-83
2022/07/14 01:51:50;;;;;;;;;;;;;;;;;;6157593;23;8706;-83
2022/07/14 01:54:16;;;;;;;;;;;;;;;;;;6158021;23;7095;-84
2022/07/14 01:56:41;;;;;;;;;;;;;;;;;;6133781;23;8298;-83
2022/07/14 01:59:07;;;;;;;;;;;;;;;;;;6133525;23;7082;-83
2022/07/14 02:01:40;;;;;;;;;;;;;;;;;;6157669;23;7025;-84
2022/07/14 02:04:10;;;;;;;;;;;;;;;;;;6157608;23;7205;-84
2022/07/14 02:06:46;;;;;;;;;;;;;;;;;;6152158;23;8733;-84
2022/07/14 02:09:12;;;;;;;;;;;;;;;;;;6152892;23;7117;-84
2022/07/14 02:14:24;;;;;;;;;;;;;;;;;;6129193;23;6948;-83
2022/07/14 02:16:49;;;;;;;;;;;;;;;;;;6152398;23;7172;-83
2022/07/14 02:19:15;;;;;;;;;;;;;;;;;;6152807;23;8620;-83
2022/07/14 02:21:41;;;;;;;;;;;;;;;;;;6152442;23;9248;-83
2022/07/14 02:24:08;;;;;;;;;;;;;;;;;;6152528;23;7159;-83
2022/07/14 02:26:34;;;;;;;;;;;;;;;;;;6153500;23;7152;-84
2022/07/14 02:29:00;;;;;;;;;;;;;;;;;;6152586;23;6803;-83
2022/07/14 02:31:26;;;;;;;;;;;;;;;;;;6152873;23;9327;-83
2022/07/14 02:33:51;;;;;;;;;;;;;;;;;;6152741;23;7103;-83
2022/07/14 02:36:17;;;;;;;;;;;;;;;;;;6152739;23;9050;-83
2022/07/14 02:38:44;;;;;;;;;;;;;;;;;;6152812;23;6854;-83
2022/07/14 02:41:09;;;;;;;;;;;;;;;;;;6152547;23;7075;-83
2022/07/14 02:43:35;;;;;;;;;;;;;;;;;;6152217;23;8419;-83
2022/07/14 02:46:01;;;;;;;;;;;;;;;;;;6153029;23;7269;-83
2022/07/14 02:48:27;;;;;;;;;;;;;;;;;;6151591;23;8307;-83
2022/07/14 02:51:06;;;;;;;;;;;;;;;;;;6151524;23;8488;-83
2022/07/14 02:53:34;;;;;;;;;;;;;;;;;;6151368;23;8486;-83
2022/07/14 02:56:03;;;;;;;;;;;;;;;;;;6151823;23;8545;-83
2022/07/14 02:58:29;;;;;;;;;;;;;;;;;;6151766;23;8353;-83
2022/07/14 03:00:55;;;;;;;;;;;;;;;;;;6152280;23;8680;-83
2022/07/14 03:03:21;;;;;;;;;;;;;;;;;;6152444;23;8689;-82
2022/07/14 03:05:47;;;;;;;;;;;;;;;;;;6152636;23;7120;-83
2022/07/14 03:08:13;;;;;;;;;;;;;;;;;;6152274;23;7017;-83
2022/07/14 03:10:39;;;;;;;;;;;;;;;;;;6153325;23;7033;-83
2022/07/14 03:13:04;;;;;;;;;;;;;;;;;;6152851;23;8202;-85
2022/07/14 03:15:30;;;;;;;;;;;;;;;;;;6152188;23;8365;-82
2022/07/14 03:17:55;;;;;;;;;;;;;;;;;;6152379;23;8559;-85
2022/07/14 03:20:21;;;;;;;;;;;;;;;;;;6152358;23;8257;-87
2022/07/14 03:22:47;;;;;;;;;;;;;;;;;;6152301;23;6958;-86
2022/07/14 03:25:12;;;;;;;;;;;;;;;;;;6152229;23;8761;-87
2022/07/14 03:27:40;;;;;;;;;;;;;;;;;;6152827;23;8911;-86
2022/07/14 03:30:07;;;;;;;;;;;;;;;;;;6151996;23;8264;-87
2022/07/14 03:32:32;;;;;;;;;;;;;;;;;;6152284;23;8401;-86
2022/07/14 03:34:59;;;;;;;;;;;;;;;;;;6152382;23;8360;-86
2022/07/14 03:37:25;;;;;;;;;;;;;;;;;;6152450;23;7194;-86
2022/07/14 03:39:51;;;;;;;;;;;;;;;;;;6153044;23;8479;-86
2022/07/14 03:42:17;;;;;;;;;;;;;;;;;;6152592;23;8668;-86
2022/07/14 03:44:44;;;;;;;;;;;;;;;;;;6152493;23;7066;-86
2022/07/14 03:47:10;;;;;;;;;;;;;;;;;;6152754;23;8263;-86
2022/07/14 03:49:36;;;;;;;;;;;;;;;;;;6152459;23;6981;-85
2022/07/14 03:52:02;;;;;;;;;;;;;;;;;;6152138;23;8239;-85
2022/07/14 03:54:27;;;;;;;;;;;;;;;;;;6152043;23;8278;-85
2022/07/14 03:56:53;;;;;;;;;;;;;;;;;;6151866;23;7184;-85
2022/07/14 03:59:18;;;;;;;;;;;;;;;;;;6152708;23;8247;-85
2022/07/14 04:01:44;;;;;;;;;;;;;;;;;;6151777;23;7023;-85
2022/07/14 04:04:10;;;;;;;;;;;;;;;;;;6152499;23;8301;-86
2022/07/14 04:06:35;;;;;;;;;;;;;;;;;;6151719;23;8385;-86
2022/07/14 04:09:01;;;;;;;;;;;;;;;;;;6151894;23;8386;-86
2022/07/14 04:11:27;;;;;;;;;;;;;;;;;;6151531;23;7232;-86
2022/07/14 04:13:53;;;;;;;;;;;;;;;;;;6152263;23;7053;-86
2022/07/14 04:16:19;;;;;;;;;;;;;;;;;;6152532;23;6806;-88
2022/07/14 04:18:44;;;;;;;;;;;;;;;;;;6152462;23;6967;-86
2022/07/14 04:21:10;;;;;;;;;;;;;;;;;;6152200;23;6993;-91
2022/07/14 04:23:37;;;;;;;;;;;;;;;;;;6152172;23;8745;-89
2022/07/14 04:26:03;;;;;;;;;;;;;;;;;;6151957;23;6990;-89
2022/07/14 04:28:29;;;;;;;;;;;;;;;;;;6151929;23;7103;-90
2022/07/14 04:30:55;;;;;;;;;;;;;;;;;;6151719;23;8380;-93
2022/07/14 04:33:21;;;;;;;;;;;;;;;;;;6152309;23;6994;-89
2022/07/14 04:35:48;;;;;;;;;;;;;;;;;;6152547;23;7049;-90
2022/07/14 04:38:14;;;;;;;;;;;;;;;;;;6151702;23;7364;-89
2022/07/14 04:40:46;;;;;;;;;;;;;;;;;;6151977;23;7017;-90
2022/07/14 04:43:12;;;;;;;;;;;;;;;;;;6152334;23;7140;-89
2022/07/14 04:45:38;;;;;;;;;;;;;;;;;;6153570;23;8485;-91
2022/07/14 04:48:03;;;;;;;;;;;;;;;;;;6153763;23;7208;-90
2022/07/14 04:53:13;;;;;;;;;;;;;;;;;;6130559;23;6966;-89
2022/07/14 04:55:39;;;;;;;;;;;;;;;;;;6153417;23;7235;-89
2022/07/14 04:58:04;;;;;;;;;;;;;;;;;;6153087;23;8352;-89
2022/07/14 05:00:30;;;;;;;;;;;;;;;;;;6152383;23;7121;-90
2022/07/14 05:02:55;;;;;;;;;;;;;;;;;;6152760;23;7114;-89
2022/07/14 05:05:21;;;;;;;;;;;;;;;;;;6152697;23;8881;-90
2022/07/14 05:07:46;;;;;;;;;;;;;;;;;;6153168;23;8337;-90
2022/07/14 05:10:12;;;;;;;;;;;;;;;;;;6153297;23;6997;-89
2022/07/14 05:12:37;;;;;;;;;;;;;;;;;;6153421;23;6991;-89
2022/07/14 05:15:03;;;;;;;;;;;;;;;;;;6153315;23;7301;-86
2022/07/14 05:17:28;;;;;;;;;;;;;;;;;;6153025;23;7108;-86
2022/07/14 05:19:54;;;;;;;;;;;;;;;;;;6153470;23;8390;-85
2022/07/14 05:22:20;;;;;;;;;;;;;;;;;;6153485;23;7166;-87
2022/07/14 05:24:46;;;;;;;;;;;;;;;;;;6152988;23;8361;-86
2022/07/14 05:27:11;;;;;;;;;;;;;;;;;;6152928;23;8271;-86
2022/07/14 05:29:37;;;;;;;;;;;;;;;;;;6153527;23;8261;-87
2022/07/14 05:32:03;;;;;;;;;;;;;;;;;;6155196;23;7261;-84
2022/07/14 05:34:30;;;;;;;;;;;;;;;;;;6149938;23;7025;-90
2022/07/14 05:36:56;;;;;;;;;;;;;;;;;;6151745;23;7540;-92
2022/07/14 05:39:22;;;;;;;;;;;;;;;;;;6152357;23;7258;-91
2022/07/14 05:41:48;;;;;;;;;;;;;;;;;;6149556;23;7063;-92
2022/07/14 05:44:14;;;;;;;;;;;;;;;;;;6156322;23;7626;-93
2022/07/14 05:46:43;;;;;;;;;;;;;;;;;;6157238;23;8402;-88
2022/07/14 05:49:10;;;;;;;;;;;;;;;;;;6154872;23;6992;-87
2022/07/14 05:51:36;;;;;;;;;;;;;;;;;;6156350;23;8483;-86
2022/07/14 05:54:01;;;;;;;;;;;;;;;;;;6151735;23;6980;-87
2022/07/14 05:56:26;;;;;;;;;;;;;;;;;;6150856;23;6950;-87
2022/07/14 05:58:52;;;;;;;;;;;;;;;;;;6151241;23;8595;-87
2022/07/14 06:01:18;;;;;;;;;;;;;;;;;;6151463;23;7133;-87
2022/07/14 06:03:44;;;;;;;;;;;;;;;;;;6150231;23;8288;-86
2022/07/14 06:06:09;;;;;;;;;;;;;;;;;;6152769;23;7216;-87
2022/07/14 06:08:35;;;;;;;;;;;;;;;;;;6131437;23;8283;-87
2022/07/14 06:11:02;;;;;;;;;;;;;;;;;;6156134;23;8658;-85
2022/07/14 06:13:30;;;;;;;;;;;;;;;;;;6156989;23;8157;-86
2022/07/14 06:15:56;;;;;;;;;;;;;;;;;;6156153;23;8251;-86
2022/07/14 06:18:22;;;;;;;;;;;;;;;;;;6155344;23;8439;-86
2022/07/14 06:20:48;;;;;;;;;;;;;;;;;;6156970;23;8301;-87
2022/07/14 06:23:14;;;;;;;;;;;;;;;;;;6132422;23;7140;-87
2022/07/14 06:25:40;;;;;;;;;;;;;;;;;;6156440;23;7342;-85
2022/07/14 06:28:07;;;;;;;;;;;;;;;;;;6156587;23;7245;-86
2022/07/14 06:30:34;;;;;;;;;;;;;;;;;;6156196;23;8382;-86
2022/07/14 06:32:59;;;;;;;;;;;;;;;;;;6155844;23;8590;-87
2022/07/14 06:35:25;;;;;;;;;;;;;;;;;;6156259;23;8464;-86
2022/07/14 06:37:51;;;;;;;;;;;;;;;;;;6155945;23;7125;-88
2022/07/14 06:40:17;;;;;;;;;;;;;;;;;;6155850;23;7155;-88
2022/07/14 06:42:42;;;;;;;;;;;;;;;;;;6131649;23;6991;-87
2022/07/14 06:45:08;;;;;;;;;;;;;;;;;;6131962;23;8371;-89
2022/07/14 06:47:34;;;;;;;;;;;;;;;;;;6155447;23;8295;-86
2022/07/14 06:50:00;;;;;;;;;;;;;;;;;;6131537;23;8032;-86
2022/07/14 06:52:26;;;;;;;;;;;;;;;;;;6156679;23;7201;-86
2022/07/14 06:54:53;;;;;;;;;;;;;;;;;;6156084;23;8832;-86
2022/07/14 06:57:19;;;;;;;;;;;;;;;;;;6156259;23;7246;-86
2022/07/14 06:59:45;;;;;;;;;;;;;;;;;;6155686;23;7318;-87
2022/07/14 07:02:10;;;;;;;;;;;;;;;;;;6003811;23;11909;-87
2022/07/14 07:04:36;;;;;;;;;;;;;;;;;;6097137;23;7216;-87
2022/07/14 07:07:01;;;;;;;;;;;;;;;;;;6096771;23;6995;-88
2022/07/14 07:09:27;;;;;;;;;;;;;;;;;;6096464;23;8381;-88
2022/07/14 07:11:52;;;;;;;;;;;;;;;;;;6097577;23;8392;-87
2022/07/14 07:14:18;;;;;;;;;;;;;;;;;;6097930;23;7009;-87
2022/07/14 07:19:09;;;;;;;;;;;;;;;;;;6097797;23;7051;-87
2022/07/14 07:21:35;;;;;;;;;;;;;;;;;;6098125;23;8364;-87
2022/07/14 07:24:01;;;;;;;;;;;;;;;;;;6096506;23;7000;-87
2022/07/14 07:26:31;;;;;;;;;;;;;;;;;;6096707;23;7050;-87
2022/07/14 07:28:57;;;;;;;;;;;;;;;;;;6096900;23;8912;-87
2022/07/14 07:31:23;;;;;;;;;;;;;;;;;;6096515;23;7072;-87
2022/07/14 07:33:48;;;;;;;;;;;;;;;;;;6096174;23;8581;-86
2022/07/14 07:36:14;;;;;;;;;;;;;;;;;;6097070;23;7432;-89
2022/07/14 07:38:39;;;;;;;;;;;;;;;;;;6094205;23;7037;-88
2022/07/14 07:41:05;;;;;;;;;;;;;;;;;;6096931;23;7011;-89
2022/07/14 07:43:31;;;;;;;;;;;;;;;;;;6096113;23;7167;-87
2022/07/14 07:45:56;;;;;;;;;;;;;;;;;;6094022;23;8466;-87
2022/07/14 07:48:22;;;;;;;;;;;;;;;;;;6094100;23;7242;-88
2022/07/14 07:50:48;;;;;;;;;;;;;;;;;;6091774;23;8440;-87
2022/07/14 07:53:14;;;;;;;;;;;;;;;;;;6096269;23;8714;-87
2022/07/14 07:55:41;;;;;;;;;;;;;;;;;;6094991;23;7168;-88
2022/07/14 07:58:07;;;;;;;;;;;;;;;;;;6094868;23;7356;-87
2022/07/14 08:00:32;;;;;;;;;;;;;;;;;;6095444;23;6991;-86
2022/07/14 08:03:00;;;;;;;;;;;;;;;;;;6095578;23;7215;-83
2022/07/14 08:05:27;;;;;;;;;;;;;;;;;;6095933;23;7146;-84
2022/07/14 08:07:53;;;;;;;;;;;;;;;;;;6094071;23;8723;-85
2022/07/14 08:10:19;;;;;;;;;;;;;;;;;;6120795;23;7179;-86
2022/07/14 08:12:45;;;;;;;;;;;;;;;;;;6095872;23;8227;-88
2022/07/14 08:15:11;;;;;;;;;;;;;;;;;;6096038;23;7415;-87
2022/07/14 08:17:36;;;;;;;;;;;;;;;;;;6095305;23;8723;-91
2022/07/14 08:20:03;;;;;;;;;;;;;;;;;;6098633;23;8373;-86
2022/07/14 08:22:28;;;;;;;;;;;;;;;;;;6100781;23;8425;-89
2022/07/14 08:24:55;;;;;;;;;;;;;;;;;;6099281;23;8938;-88
2022/07/14 08:27:21;;;;;;;;;;;;;;;;;;6099448;23;8322;-91
2022/07/14 08:29:46;;;;;;;;;;;;;;;;;;6098996;23;7981;-90
2022/07/14 08:32:12;;;;;;;;;;;;;;;;;;6098387;23;8470;-90
2022/07/14 08:34:38;;;;;;;;;;;;;;;;;;6097835;23;8667;-90
2022/07/14 08:37:05;;;;;;;;;;;;;;;;;;6098694;23;7151;-90
2022/07/14 08:39:31;;;;;;;;;;;;;;;;;;6097209;23;8786;-90
2022/07/14 08:42:00;;;;;;;;;;;;;;;;;;6098878;23;7052;-90
2022/07/14 08:44:26;;;;;;;;;;;;;;;;;;6098760;23;8312;-90
2022/07/14 08:46:56;;;;;;;;;;;;;;;;;;6098411;23;8389;-90
2022/07/14 08:49:22;;;;;;;;;;;;;;;;;;6098498;23;7402;-91
2022/07/14 08:51:49;;;;;;;;;;;;;;;;;;6099399;23;6832;-90
2022/07/14 08:54:16;;;;;;;;;;;;;;;;;;6098164;23;8299;-90
2022/07/14 08:56:41;;;;;;;;;;;;;;;;;;6100363;23;7048;-91
2022/07/14 08:59:08;;;;;;;;;;;;;;;;;;6099021;23;8311;-90
2022/07/14 09:01:34;;;;;;;;;;;;;;;;;;6098388;23;7186;-90
2022/07/14 09:03:59;;;;;;;;;;;;;;;;;;6098424;23;7022;-90
2022/07/14 09:06:43;;;;;;;;;;;;;;;;;;6098735;23;7231;-90
2022/07/14 09:09:09;;;;;;;;;;;;;;;;;;6115247;23;7010;-81
2022/07/14 09:11:34;;;;;;;;;;;;;;;;;;6098581;23;8348;-82
2022/07/14 09:14:10;;;;;;;;;;;;;;;;;;6097702;23;8549;-81
2022/07/14 09:16:35;;;;;;;;;;;;;;;;;;6097708;23;8377;-91
2022/07/14 09:19:02;;;;;;;;;;;;;;;;;;6098195;23;7140;-90
2022/07/14 09:21:28;;;;;;;;;;;;;;;;;;6097820;23;7506;-90
2022/07/14 09:23:55;;;;;;;;;;;;;;;;;;6097424;23;8434;-90
2022/07/14 09:26:21;;;;;;;;;;;;;;;;;;6097959;23;7253;-90
2022/07/14 09:28:48;;;;;;;;;;;;;;;;;;6097869;23;8405;-91
2022/07/14 09:31:23;;;;;;;;;;;;;;;;;;6096950;23;8686;-90
2022/07/14 09:33:59;;;;;;;;;;;;;;;;;;6098026;23;8733;-91
2022/07/14 09:36:35;;;;;;;;;;;;;;;;;;6099415;23;8408;-91
2022/07/14 09:39:03;;;;;;;;;;;;;;;;;;6100358;23;7164;-91
2022/07/14 09:41:30;;;;;;;;;;;;;;;;;;6099517;23;8398;-88
2022/07/14 09:44:06;;;;;;;;;;;;;;;;;;6099694;23;8283;-89
2022/07/14 09:46:45;;;;;;;;;;;;;;;;;;6096843;23;7177;-88
2022/07/14 09:49:12;;;;;;;;;;;;;;;;;;6097648;23;7040;-88
2022/07/14 09:51:58;;;;;;;;;;;;;;;;;;6097733;23;7630;-90
2022/07/14 09:54:43;;;;;;;;;;;;;;;;;;6097606;23;7513;-89
2022/07/14 09:57:12;;;;;;;;;;;;;;;;;;6122707;23;8296;-89
2022/07/14 09:59:56;;;;;;;;;;;;;;;;;;6121318;23;7069;-90
2022/07/14 10:02:21;;;;;;;;;;;;;;;;;;6097965;23;8508;-90
2022/07/14 10:04:47;;;;;;;;;;;;;;;;;;6121769;23;8289;-91
2022/07/14 10:07:14;;;;;;;;;;;;;;;;;;6097073;23;8570;-90
2022/07/14 10:09:46;;;;;;;;;;;;;;;;;;6121311;23;8355;-90
2022/07/14 10:12:12;;;;;;;;;;;;;;;;;;6097944;23;7041;-82
2022/07/14 10:14:38;;;;;;;;;;;;;;;;;;6095240;23;8646;-79
2022/07/14 10:17:05;;;;;;;;;;;;;;;;;;6098049;23;7077;-80
2022/07/14 10:19:31;;;;;;;;;;;;;;;;;;6097046;23;7090;-90
2022/07/14 10:21:58;;;;;;;;;;;;;;;;;;6096619;23;8658;-91
2022/07/14 10:24:25;;;;;;;;;;;;;;;;;;6121809;23;7187;-91
2022/07/14 10:26:53;;;;;;;;;;;;;;;;;;6122201;23;7150;-90
2022/07/14 10:29:19;;;;;;;;;;;;;;;;;;6121257;23;8376;-90
2022/07/14 10:31:47;;;;;;;;;;;;;;;;;;6122499;23;7056;-89
2022/07/14 10:34:39;;;;;;;;;;;;;;;;;;6091114;23;8307;-88
2022/07/14 10:37:13;;;;;;;;;;;;;;;;;;6121184;23;8664;-87
2022/07/14 10:39:56;;;;;;;;;;;;;;;;;;6121698;23;7146;-87
2022/07/14 10:42:37;;;;;;;;;;;;;;;;;;6120124;23;9018;-89
2022/07/14 10:45:04;;;;;;;;;;;;;;;;;;6096844;23;8396;-88
2022/07/14 10:47:48;;;;;;;;;;;;;;;;;;6122796;23;8791;-88
2022/07/14 10:50:18;;;;;;;;;;;;;;;;;;6121793;23;7465;-88
2022/07/14 10:52:57;;;;;;;;;;;;;;;;;;6122096;23;8410;-88
2022/07/14 10:55:28;;;;;;;;;;;;;;;;;;6122228;23;7064;-87
2022/07/14 10:58:04;;;;;;;;;;;;;;;;;;6096405;23;7059;-87
2022/07/14 11:00:38;;;;;;;;;;;;;;;;;;6097809;23;7282;-88
2022/07/14 11:03:17;;;;;;;;;;;;;;;;;;6097723;23;8369;-87
2022/07/14 11:06:06;;;;;;;;;;;;;;;;;;6122919;23;8416;-88
2022/07/14 11:08:33;;;;;;;;;;;;;;;;;;6097402;23;9074;-88
2022/07/14 11:10:58;;;;;;;;;;;;;;;;;;6122020;23;8415;-88
2022/07/14 11:13:23;;;;;;;;;;;;;;;;;;6097867;23;8452;-81
2022/07/14 11:15:55;;;;;;;;;;;;;;;;;;6122030;23;8594;-89
2022/07/14 11:18:27;;;;;;;;;;;;;;;;;;6096818;23;7182;-87
2022/07/14 11:20:56;;;;;;;;;;;;;;;;;;6122130;23;8398;-87
2022/07/14 11:23:23;;;;;;;;;;;;;;;;;;6097548;23;7032;-86
2022/07/14 11:25:50;;;;;;;;;;;;;;;;;;6122490;23;7068;-87
2022/07/14 11:28:34;;;;;;;;;;;;;;;;;;6122161;23;8393;-87
2022/07/14 11:31:26;;;;;;;;;;;;;;;;;;6121178;23;8407;-88
2022/07/14 11:36:45;;;;;;;;;;;;;;;;;;6097950;23;6805;-85
2022/07/14 11:39:16;;;;;;;;;;;;;;;;;;6120588;23;8665;-84
2022/07/14 11:41:50;;;;;;;;;;;;;;;;;;6096605;23;7020;-87
2022/07/14 11:44:40;;;;;;;;;;;;;;;;;;6120935;23;7115;-86
2022/07/14 11:47:08;;;;;;;;;;;;;;;;;;6096623;23;7137;-84
2022/07/14 11:49:35;;;;;;;;;;;;;;;;;;6095813;23;8389;-86
2022/07/14 11:52:02;;;;;;;;;;;;;;;;;;6120784;23;9395;-89
2022/07/14 11:54:27;;;;;;;;;;;;;;;;;;6122305;23;8484;-90
2022/07/14 11:57:06;;;;;;;;;;;;;;;;;;6121706;23;7027;-88
2022/07/14 11:59:42;;;;;;;;;;;;;;;;;;6120854;23;8411;-90
2022/07/14 12:02:10;;;;;;;;;;;;;;;;;;6123774;23;8337;-90
2022/07/14 12:04:47;;;;;;;;;;;;;;;;;;6122566;23;7378;-90
2022/07/14 12:07:13;;;;;;;;;;;;;;;;;;6097492;23;8786;-89
2022/07/14 12:09:38;;;;;;;;;;;;;;;;;;6122320;23;8870;-90
2022/07/14 12:12:04;;;;;;;;;;;;;;;;;;6122838;23;8627;-90
2022/07/14 12:14:31;;;;;;;;;;;;;;;;;;6121917;23;8358;-90
2022/07/14 12:16:56;;;;;;;;;;;;;;;;;;6121020;23;7185;-89
2022/07/14 12:19:29;;;;;;;;;;;;;;;;;;6122369;23;7080;-88
2022/07/14 12:22:03;;;;;;;;;;;;;;;;;;6122345;23;8404;-88
2022/07/14 12:24:29;;;;;;;;;;;;;;;;;;6122548;23;8761;-88
2022/07/14 12:27:03;;;;;;;;;;;;;;;;;;6121812;23;8026;-87
2022/07/14 12:29:30;;;;;;;;;;;;;;;;;;6121747;23;8536;-84
2022/07/14 12:31:57;;;;;;;;;;;;;;;;;;6122861;23;8775;-85
2022/07/14 12:34:24;;;;;;;;;;;;;;;;;;6121720;23;8776;-86
2022/07/14 12:36:50;;;;;;;;;;;;;;;;;;6122035;23;8399;-86
2022/07/14 12:39:18;;;;;;;;;;;;;;;;;;6122596;23;7183;-86
2022/07/14 12:41:45;;;;;;;;;;;;;;;;;;6122167;23;7250;-86
2022/07/14 12:44:11;;;;;;;;;;;;;;;;;;6122507;23;6910;-84
2022/07/14 12:46:37;;;;;;;;;;;;;;;;;;6120631;23;7160;-86
2022/07/14 12:49:15;;;;;;;;;;;;;;;;;;6121909;23;8507;-85
2022/07/14 12:51:44;;;;;;;;;;;;;;;;;;6122463;23;8374;-84
2022/07/14 12:54:19;;;;;;;;;;;;;;;;;;6122556;23;8335;-87
2022/07/14 12:56:47;;;;;;;;;;;;;;;;;;6122950;23;7173;-87
2022/07/14 12:59:15;;;;;;;;;;;;;;;;;;6121930;23;8394;-87
2022/07/14 13:01:47;;;;;;;;;;;;;;;;;;6122149;23;7210;-88
2022/07/14 13:04:18;;;;;;;;;;;;;;;;;;6098524;23;7172;-89
2022/07/14 13:06:46;;;;;;;;;;;;;;;;;;6121737;23;7181;-90
2022/07/14 13:09:14;;;;;;;;;;;;;;;;;;6120866;23;7188;-89
2022/07/14 13:11:40;;;;;;;;;;;;;;;;;;6122741;23;7070;-88
2022/07/14 13:14:08;;;;;;;;;;;;;;;;;;6122565;23;8385;-89
2022/07/14 13:16:35;;;;;;;;;;;;;;;;;;6121910;23;8813;-89
2022/07/14 13:19:05;;;;;;;;;;;;;;;;;;6121498;23;7135;-91
2022/07/14 13:21:49;;;;;;;;;;;;;;;;;;6122307;23;7181;-89
2022/07/14 13:24:17;;;;;;;;;;;;;;;;;;6122084;23;8491;-90
2022/07/14 13:26:43;;;;;;;;;;;;;;;;;;6122483;23;8489;-88
2022/07/14 13:29:09;;;;;;;;;;;;;;;;;;6121517;23;8422;-89
2022/07/14 13:31:34;;;;;;;;;;;;;;;;;;6121951;23;8331;-82
2022/07/14 13:34:01;;;;;;;;;;;;;;;;;;6129443;23;8870;-87
2022/07/14 13:36:28;;;;;;;;;;;;;;;;;;6106818;23;8879;-82
2022/07/14 13:38:54;;;;;;;;;;;;;;;;;;6095532;23;8418;-80
2022/07/14 13:41:20;;;;;;;;;;;;;;;;;;6098113;23;7204;-79
2022/07/14 13:43:48;;;;;;;;;;;;;;;;;;6098126;23;7141;-79
2022/07/14 13:46:14;;;;;;;;;;;;;;;;;;6097650;23;8395;-82
2022/07/14 13:48:41;;;;;;;;;;;;;;;;;;6101476;23;8594;-83
2022/07/14 13:53:51;;;;;;;;;;;;;;;;;;6097677;23;6815;-80
2022/07/14 13:56:17;;;;;;;;;;;;;;;;;;6094779;23;8445;-84
2022/07/14 13:58:43;;;;;;;;;;;;;;;;;;6094247;23;7147;-80
2022/07/14 14:01:08;;;;;;;;;;;;;;;;;;6092131;23;8415;-82
2022/07/14 14:03:34;;;;;;;;;;;;;;;;;;6095604;23;8272;-81
2022/07/14 14:06:00;;;;;;;;;;;;;;;;;;6092662;23;8737;-84
2022/07/14 14:08:28;;;;;;;;;;;;;;;;;;6120176;23;7275;-83
2022/07/14 14:10:53;;;;;;;;;;;;;;;;;;6098552;23;7296;-83
2022/07/14 14:13:20;;;;;;;;;;;;;;;;;;6091691;23;7261;-83
2022/07/14 14:15:46;;;;;;;;;;;;;;;;;;6094677;23;8524;-83
2022/07/14 14:18:12;;;;;;;;;;;;;;;;;;6093353;23;8733;-82
2022/07/14 14:20:38;;;;;;;;;;;;;;;;;;6093632;23;8431;-80
2022/07/14 14:23:07;;;;;;;;;;;;;;;;;;6097248;23;7007;-79
2022/07/14 14:25:34;;;;;;;;;;;;;;;;;;6097530;23;8244;-84
2022/07/14 14:28:00;;;;;;;;;;;;;;;;;;6100342;23;8709;-83
2022/07/14 14:30:26;;;;;;;;;;;;;;;;;;6097948;23;7272;-81
2022/07/14 14:32:51;;;;;;;;;;;;;;;;;;6123506;23;7422;-83
2022/07/14 14:35:44;;;;;;;;;;;;;;;;;;6106648;23;7175;-90
2022/07/14 14:38:30;;;;;;;;;;;;;;;;;;6100484;23;7226;-88
2022/07/14 14:40:56;;;;;;;;;;;;;;;;;;6124410;23;6916;-90
2022/07/14 14:43:21;;;;;;;;;;;;;;;;;;6101488;23;8693;-87
2022/07/14 14:45:47;;;;;;;;;;;;;;;;;;6109645;23;8398;-88
2022/07/14 14:48:14;;;;;;;;;;;;;;;;;;6133136;23;7025;-90
2022/07/14 14:50:42;;;;;;;;;;;;;;;;;;6130349;23;6883;-86
2022/07/14 14:53:11;;;;;;;;;;;;;;;;;;6110055;23;7089;-88
2022/07/14 14:55:37;;;;;;;;;;;;;;;;;;6100089;23;6873;-91
2022/07/14 14:58:02;;;;;;;;;;;;;;;;;;6126607;23;6978;-89
2022/07/14 15:00:29;;;;;;;;;;;;;;;;;;6121244;23;8411;-89
2022/07/14 15:03:02;;;;;;;;;;;;;;;;;;6105696;23;6870;-86
2022/07/14 15:05:34;;;;;;;;;;;;;;;;;;6132778;23;7042;-88
2022/07/14 15:08:00;;;;;;;;;;;;;;;;;;6106363;23;6844;-85
2022/07/14 15:10:26;;;;;;;;;;;;;;;;;;6124651;23;8416;-89
2022/07/14 15:12:51;;;;;;;;;;;;;;;;;;6121373;23;8284;-87
2022/07/14 15:15:17;;;;;;;;;;;;;;;;;;6120688;23;6923;-89
2022/07/14 15:17:43;;;;;;;;;;;;;;;;;;6120856;23;7269;-86
2022/07/14 15:20:09;;;;;;;;;;;;;;;;;;6121065;23;8629;-91
2022/07/14 15:22:35;;;;;;;;;;;;;;;;;;6095956;23;8690;-90
2022/07/14 15:25:01;;;;;;;;;;;;;;;;;;6096361;23;7021;-90
2022/07/14 15:27:27;;;;;;;;;;;;;;;;;;6096161;23;8371;-90
2022/07/14 15:29:53;;;;;;;;;;;;;;;;;;6120682;23;8557;-91
2022/07/14 15:32:18;;;;;;;;;;;;;;;;;;6122309;23;8371;-90
2022/07/14 15:34:44;;;;;;;;;;;;;;;;;;6122092;23;8394;-91
2022/07/14 15:37:10;;;;;;;;;;;;;;;;;;6098243;23;7016;-90
2022/07/14 15:42:22;;;;;;;;;;;;;;;;;;6101366;23;6804;-86
2022/07/14 15:44:47;;;;;;;;;;;;;;;;;;6122197;23;8774;-84
2022/07/14 15:47:13;;;;;;;;;;;;;;;;;;6098602;23;7059;-89
2022/07/14 15:59:54;;;;;;;;;;;;;;;;;;5070092;28;6747;-53
2022/07/14 16:02:19;;;;;;;;;;;;;;;;;;5071546;28;7063;-53
2022/07/14 16:04:44;;;;;;;;;;;;;;;;;;5071178;28;7072;-55
2022/07/14 16:07:10;;;;;;;;;;;;;;;;;;5071051;28;7398;-55
2022/07/14 16:09:35;;;;;;;;;;;;;;;;;;5070557;28;7208;-54
2022/07/14 16:12:01;;;;;;;;;;;;;;;;;;5070714;28;7012;-53
2022/07/14 16:14:26;;;;;;;;;;;;;;;;;;5071019;28;7007;-55
2022/07/14 16:16:52;;;;;;;;;;;;;;;;;;5071393;28;7118;-55
2022/07/14 16:19:17;;;;;;;;;;;;;;;;;;5070484;28;7938;-55
2022/07/14 16:21:43;;;;;;;;;;;;;;;;;;5071180;28;7120;-55
2022/07/14 16:24:09;;;;;;;;;;;;;;;;;;5070735;28;7088;-54
2022/07/14 16:26:34;;;;;;;;;;;;;;;;;;5069287;28;6976;-55
2022/07/14 16:29:00;;;;;;;;;;;;;;;;;;5070374;28;7076;-54
2022/07/14 16:31:27;;;;;;;;;;;;;;;;;;5069912;28;7281;-55
2022/07/14 16:33:52;;;;;;;;;;;;;;;;;;5069912;28;7008;-54
2022/07/14 16:36:18;;;;;;;;;;;;;;;;;;5069768;28;7193;-53
2022/07/14 16:38:43;;;;;;;;;;;;;;;;;;5070383;28;7090;-54
2022/07/14 16:41:09;;;;;;;;;;;;;;;;;;5070297;28;7079;-54
2022/07/14 16:43:35;;;;;;;;;;;;;;;;;;5069910;28;7035;-55
2022/07/14 16:46:02;;;;;;;;;;;;;;;;;;5070513;28;7277;-52
2022/07/14 16:48:27;;;;;;;;;;;;;;;;;;5069845;28;7120;-54
2022/07/14 16:50:53;;;;;;;;;;;;;;;;;;5070351;28;6999;-55
2022/07/14 16:53:18;;;;;;;;;;;;;;;;;;5070342;28;6957;-55
2022/07/14 16:55:44;;;;;;;;;;;;;;;;;;5070492;28;7138;-55
2022/07/14 16:58:11;;;;;;;;;;;;;;;;;;5070235;28;7035;-55
2022/07/14 17:00:37;;;;;;;;;;;;;;;;;;5060348;28;7053;-55
2022/07/14 17:03:02;;;;;;;;;;;;;;;;;;5056616;28;7914;-54
2022/07/14 17:08:12;;;;;;;;;;;;;;;;;;5055739;28;6821;-54
2022/07/14 17:10:37;;;;;;;;;;;;;;;;;;5056348;28;7110;-54
2022/07/14 17:13:03;;;;;;;;;;;;;;;;;;5056514;28;7148;-54
2022/07/14 17:15:28;;;;;;;;;;;;;;;;;;5055964;28;7310;-53
2022/07/14 17:17:54;;;;;;;;;;;;;;;;;;5056269;28;7132;-55
2022/07/14 17:20:19;;;;;;;;;;;;;;;;;;5055468;28;7243;-55
2022/07/14 17:22:46;;;;;;;;;;;;;;;;;;5055920;28;7024;-55
2022/07/14 17:25:14;;;;;;;;;;;;;;;;;;5055874;28;8186;-58
2022/07/14 17:27:40;;;;;;;;;;;;;;;;;;5055979;28;7178;-55
2022/07/14 17:30:06;;;;;;;;;;;;;;;;;;5056090;28;7169;-53
2022/07/14 17:32:32;;;;;;;;;;;;;;;;;;5056653;28;7090;-54
2022/07/14 17:34:57;;;;;;;;;;;;;;;;;;5056476;28;7421;-54